Terminal Aerodrome Forecast
Issued by NWS Lake Charles, LA

Home | Current Version | Previous Version | Text Only | Print | Product List | Glossary On
Versions: 1 2 3 4 5 6 7 8 9 10 11 12 13 14 15 16 17 18 19 20 21 22 23
000
FTUS44 KLCH 281120
TAFAEX
TAF
KAEX 281120Z 2812/2912 VRB03KT P6SM FEW025 SCT250
     FM281400 VRB04KT P6SM SCT025 SCT250
     FM281800 18005KT P6SM VCTS SCT040CB SCT250
      TEMPO 2820/2824 4SM -TSRA BKN020CB OVC035
     FM290100 VRB03KT P6SM SCT250=

USA.gov is the U.S. government's official web portal to all federal, state and local government web resources and services.